Accueil
METAR-TAF:

METAR-TAF

Aéroports :

São José dos Campos, São Paulo, Brésil

latitude: 23-14S, longitude: 045-52W, altitude: 646 m

Observation

Le bulletin a été fait il y a 34 minutes, à 15:00 UTC
Vent 4 kt de sud
Température 21°C
Humidité 73%
Pression 1019 hPa
Visibilité 10 km ou plus
Nuages fragmentés à une hauteur de 2300 ft
Nuages fragmentés à une hauteur de 3000 ft

METAR: SBSJ 081500Z 18004KT 9999 BKN023 BKN030 21/16 Q1019

Heure: 12:34 (15:34 UTC)

Prévision

Le bulletin a été fait il y a 6 heures et 34 minutes, à 09:00 UTC
Prévision valable du 08 à 12 UTC au 08 à 24 UTC
Vent 6 kt de nord
Visibilité: 8000 m
Nuages fragmentés à une hauteur de 1500 ft
Evoluant progressivement
du 08 à 13 UTC au 08 à 15 UTC
Nuages épars à une hauteur de 2000 ft

TAF: SBSJ 080900Z 0812/0824 36006KT 8000 BKN015 TN21/0812Z TX29/0817Z BECMG 0813/0815 SCT020 RMK PEI

Observations et prévisions météorologiques de plus de 4000 aéroports (messages METAR et TAF).

Les stations disponibles sont représentées par des disques jaunes et rouges sur la carte.

Passer la souris dessus pour voir le nom de la station.

Cliquer dessus pour voir les observations et prévisions météorologiques.

Pour changer de carte: cliquez sur les boutons verts avec une croix noire pour zoomer, sur le bouton vert avec un tiret pour effectuer un zoom arrière, ou sur les flèches vertes pour les cartes adjacentes.


METAR-TAF: